sensor_id;sensor_type;location;lat;lon;timestamp;P1;durP1;ratioP1;P2;durP2;ratioP2
72427;SDS011;60419;48.880;18.036;2023-05-07T00:01:45;16.83;;;11.70;;
72427;SDS011;60419;48.880;18.036;2023-05-07T00:04:31;18.52;;;12.32;;
72427;SDS011;60419;48.880;18.036;2023-05-07T00:07:21;16.98;;;12.40;;
72427;SDS011;60419;48.880;18.036;2023-05-07T00:10:07;17.42;;;12.25;;
72427;SDS011;60419;48.880;18.036;2023-05-07T00:12:52;15.27;;;11.52;;
72427;SDS011;60419;48.880;18.036;2023-05-07T00:15:38;18.00;;;12.18;;
72427;SDS011;60419;48.880;18.036;2023-05-07T00:18:23;17.65;;;11.68;;
72427;SDS011;60419;48.880;18.036;2023-05-07T00:21:09;17.92;;;12.35;;
72427;SDS011;60419;48.880;18.036;2023-05-07T00:23:54;18.77;;;13.20;;
72427;SDS011;60419;48.880;18.036;2023-05-07T00:26:39;21.85;;;14.23;;
72427;SDS011;60419;48.880;18.036;2023-05-07T00:29:25;22.55;;;15.15;;
72427;SDS011;60419;48.880;18.036;2023-05-07T00:32:10;21.60;;;15.70;;
72427;SDS011;60419;48.880;18.036;2023-05-07T00:34:56;23.52;;;15.30;;
72427;SDS011;60419;48.880;18.036;2023-05-07T00:37:41;22.13;;;15.85;;
72427;SDS011;60419;48.880;18.036;2023-05-07T00:40:26;20.88;;;15.15;;
72427;SDS011;60419;48.880;18.036;2023-05-07T00:43:12;17.20;;;13.25;;
72427;SDS011;60419;48.880;18.036;2023-05-07T00:45:57;19.63;;;13.45;;
72427;SDS011;60419;48.880;18.036;2023-05-07T00:48:43;20.75;;;13.75;;
72427;SDS011;60419;48.880;18.036;2023-05-07T00:51:28;18.95;;;14.10;;
72427;SDS011;60419;48.880;18.036;2023-05-07T00:54:14;20.50;;;13.30;;
72427;SDS011;60419;48.880;18.036;2023-05-07T00:57:01;19.25;;;13.63;;
72427;SDS011;60419;48.880;18.036;2023-05-07T00:59:48;18.48;;;13.68;;
72427;SDS011;60419;48.880;18.036;2023-05-07T01:02:33;20.13;;;14.48;;
72427;SDS011;60419;48.880;18.036;2023-05-07T01:05:20;19.73;;;13.52;;
72427;SDS011;60419;48.880;18.036;2023-05-07T01:08:08;24.73;;;16.92;;
72427;SDS011;60419;48.880;18.036;2023-05-07T01:10:54;24.92;;;18.63;;
72427;SDS011;60419;48.880;18.036;2023-05-07T01:13:41;25.95;;;19.33;;
72427;SDS011;60419;48.880;18.036;2023-05-07T01:16:26;26.83;;;18.75;;
72427;SDS011;60419;48.880;18.036;2023-05-07T01:19:13;27.27;;;18.98;;
72427;SDS011;60419;48.880;18.036;2023-05-07T01:22:04;26.83;;;16.83;;
72427;SDS011;60419;48.880;18.036;2023-05-07T01:24:53;32.85;;;20.55;;
72427;SDS011;60419;48.880;18.036;2023-05-07T01:27:41;27.92;;;19.77;;
72427;SDS011;60419;48.880;18.036;2023-05-07T01:30:26;26.98;;;18.80;;
72427;SDS011;60419;48.880;18.036;2023-05-07T01:33:13;25.92;;;19.67;;
72427;SDS011;60419;48.880;18.036;2023-05-07T01:36:03;30.33;;;19.35;;
72427;SDS011;60419;48.880;18.036;2023-05-07T01:38:51;27.45;;;18.52;;
72427;SDS011;60419;48.880;18.036;2023-05-07T01:41:37;27.60;;;18.52;;
72427;SDS011;60419;48.880;18.036;2023-05-07T01:44:23;27.73;;;18.50;;
72427;SDS011;60419;48.880;18.036;2023-05-07T01:47:09;31.00;;;19.42;;
72427;SDS011;60419;48.880;18.036;2023-05-07T01:49:55;28.17;;;18.65;;
72427;SDS011;60419;48.880;18.036;2023-05-07T01:52:41;26.80;;;19.00;;
72427;SDS011;60419;48.880;18.036;2023-05-07T01:55:26;32.97;;;19.35;;
72427;SDS011;60419;48.880;18.036;2023-05-07T01:58:12;28.35;;;19.55;;
72427;SDS011;60419;48.880;18.036;2023-05-07T02:00:57;29.33;;;19.85;;
72427;SDS011;60419;48.880;18.036;2023-05-07T02:03:43;29.35;;;19.13;;
72427;SDS011;60419;48.880;18.036;2023-05-07T02:06:29;26.65;;;18.45;;
72427;SDS011;60419;48.880;18.036;2023-05-07T02:09:15;27.98;;;19.00;;
72427;SDS011;60419;48.880;18.036;2023-05-07T02:12:01;27.10;;;19.30;;
72427;SDS011;60419;48.880;18.036;2023-05-07T02:14:46;28.73;;;19.10;;
72427;SDS011;60419;48.880;18.036;2023-05-07T02:17:31;29.38;;;19.38;;
72427;SDS011;60419;48.880;18.036;2023-05-07T02:20:17;30.05;;;18.50;;
72427;SDS011;60419;48.880;18.036;2023-05-07T02:23:03;29.20;;;19.83;;
72427;SDS011;60419;48.880;18.036;2023-05-07T02:25:48;32.00;;;20.00;;
72427;SDS011;60419;48.880;18.036;2023-05-07T02:28:34;28.33;;;19.48;;
72427;SDS011;60419;48.880;18.036;2023-05-07T02:31:22;29.50;;;19.95;;
72427;SDS011;60419;48.880;18.036;2023-05-07T02:34:08;28.63;;;18.95;;
72427;SDS011;60419;48.880;18.036;2023-05-07T02:36:53;28.45;;;19.73;;
72427;SDS011;60419;48.880;18.036;2023-05-07T02:39:38;27.27;;;18.45;;
72427;SDS011;60419;48.880;18.036;2023-05-07T02:42:24;25.70;;;18.33;;
72427;SDS011;60419;48.880;18.036;2023-05-07T02:45:09;26.63;;;17.88;;
72427;SDS011;60419;48.880;18.036;2023-05-07T02:47:55;29.08;;;18.80;;
72427;SDS011;60419;48.880;18.036;2023-05-07T02:50:40;27.75;;;17.27;;
72427;SDS011;60419;48.880;18.036;2023-05-07T02:53:26;22.08;;;16.02;;
72427;SDS011;60419;48.880;18.036;2023-05-07T02:56:11;26.73;;;18.42;;
72427;SDS011;60419;48.880;18.036;2023-05-07T02:58:57;26.73;;;17.95;;
72427;SDS011;60419;48.880;18.036;2023-05-07T03:01:43;27.25;;;17.17;;
72427;SDS011;60419;48.880;18.036;2023-05-07T03:04:30;29.45;;;17.75;;
72427;SDS011;60419;48.880;18.036;2023-05-07T03:07:15;27.33;;;18.40;;
72427;SDS011;60419;48.880;18.036;2023-05-07T03:10:00;27.60;;;18.45;;
72427;SDS011;60419;48.880;18.036;2023-05-07T03:12:46;28.85;;;19.38;;
72427;SDS011;60419;48.880;18.036;2023-05-07T03:15:31;33.53;;;20.65;;
72427;SDS011;60419;48.880;18.036;2023-05-07T03:18:17;29.85;;;19.30;;
72427;SDS011;60419;48.880;18.036;2023-05-07T03:21:02;31.45;;;20.52;;
72427;SDS011;60419;48.880;18.036;2023-05-07T03:23:47;31.55;;;20.77;;
72427;SDS011;60419;48.880;18.036;2023-05-07T03:26:33;31.35;;;21.17;;
72427;SDS011;60419;48.880;18.036;2023-05-07T03:29:18;30.77;;;20.02;;
72427;SDS011;60419;48.880;18.036;2023-05-07T03:32:04;35.70;;;20.05;;
72427;SDS011;60419;48.880;18.036;2023-05-07T03:34:51;31.20;;;21.15;;
72427;SDS011;60419;48.880;18.036;2023-05-07T03:37:37;32.35;;;21.55;;
72427;SDS011;60419;48.880;18.036;2023-05-07T03:40:23;31.85;;;20.50;;
72427;SDS011;60419;48.880;18.036;2023-05-07T03:43:08;33.15;;;20.48;;
72427;SDS011;60419;48.880;18.036;2023-05-07T03:45:54;32.33;;;21.85;;
72427;SDS011;60419;48.880;18.036;2023-05-07T03:48:39;32.00;;;20.58;;
72427;SDS011;60419;48.880;18.036;2023-05-07T03:51:25;31.17;;;20.75;;
72427;SDS011;60419;48.880;18.036;2023-05-07T03:54:10;30.60;;;20.33;;
72427;SDS011;60419;48.880;18.036;2023-05-07T03:56:56;33.83;;;20.40;;
72427;SDS011;60419;48.880;18.036;2023-05-07T03:59:41;34.20;;;21.05;;
72427;SDS011;60419;48.880;18.036;2023-05-07T04:02:27;30.60;;;19.48;;
72427;SDS011;60419;48.880;18.036;2023-05-07T04:05:13;32.72;;;19.98;;
72427;SDS011;60419;48.880;18.036;2023-05-07T04:07:59;30.13;;;20.58;;
72427;SDS011;60419;48.880;18.036;2023-05-07T04:10:45;33.80;;;21.15;;
72427;SDS011;60419;48.880;18.036;2023-05-07T04:13:31;30.38;;;20.23;;
72427;SDS011;60419;48.880;18.036;2023-05-07T04:16:16;27.65;;;18.42;;
72427;SDS011;60419;48.880;18.036;2023-05-07T04:19:02;29.42;;;20.02;;
72427;SDS011;60419;48.880;18.036;2023-05-07T04:21:47;31.35;;;20.23;;
72427;SDS011;60419;48.880;18.036;2023-05-07T04:24:32;29.23;;;19.00;;
72427;SDS011;60419;48.880;18.036;2023-05-07T04:27:18;30.95;;;19.48;;
72427;SDS011;60419;48.880;18.036;2023-05-07T04:30:03;26.90;;;18.70;;
72427;SDS011;60419;48.880;18.036;2023-05-07T04:32:49;30.08;;;18.20;;
72427;SDS011;60419;48.880;18.036;2023-05-07T04:35:35;29.35;;;19.60;;
72427;SDS011;60419;48.880;18.036;2023-05-07T04:38:20;27.65;;;18.88;;
72427;SDS011;60419;48.880;18.036;2023-05-07T04:41:06;25.73;;;17.45;;
72427;SDS011;60419;48.880;18.036;2023-05-07T04:43:51;26.52;;;18.50;;
72427;SDS011;60419;48.880;18.036;2023-05-07T04:46:37;26.85;;;18.27;;
72427;SDS011;60419;48.880;18.036;2023-05-07T04:49:22;25.70;;;16.80;;
72427;SDS011;60419;48.880;18.036;2023-05-07T04:52:07;22.90;;;16.83;;
72427;SDS011;60419;48.880;18.036;2023-05-07T04:54:53;24.20;;;17.08;;
72427;SDS011;60419;48.880;18.036;2023-05-07T04:57:38;23.70;;;16.33;;
72427;SDS011;60419;48.880;18.036;2023-05-07T05:00:25;24.25;;;13.55;;
72427;SDS011;60419;48.880;18.036;2023-05-07T05:03:11;23.23;;;15.38;;
72427;SDS011;60419;48.880;18.036;2023-05-07T05:05:56;24.08;;;15.82;;
72427;SDS011;60419;48.880;18.036;2023-05-07T05:08:44;26.95;;;15.00;;
72427;SDS011;60419;48.880;18.036;2023-05-07T05:11:29;24.88;;;14.75;;
72427;SDS011;60419;48.880;18.036;2023-05-07T05:14:15;24.15;;;15.45;;
72427;SDS011;60419;48.880;18.036;2023-05-07T05:17:00;23.02;;;14.65;;
72427;SDS011;60419;48.880;18.036;2023-05-07T05:19:46;20.58;;;13.55;;
72427;SDS011;60419;48.880;18.036;2023-05-07T05:22:31;22.70;;;12.80;;
72427;SDS011;60419;48.880;18.036;2023-05-07T05:25:17;20.33;;;13.48;;
72427;SDS011;60419;48.880;18.036;2023-05-07T05:28:02;18.17;;;12.70;;
72427;SDS011;60419;48.880;18.036;2023-05-07T05:30:48;16.75;;;10.52;;
72427;SDS011;60419;48.880;18.036;2023-05-07T05:33:34;18.30;;;12.07;;
72427;SDS011;60419;48.880;18.036;2023-05-07T05:36:19;19.30;;;12.65;;
72427;SDS011;60419;48.880;18.036;2023-05-07T05:39:05;19.30;;;12.32;;
72427;SDS011;60419;48.880;18.036;2023-05-07T05:41:50;19.50;;;13.20;;
72427;SDS011;60419;48.880;18.036;2023-05-07T05:44:36;18.77;;;11.88;;
72427;SDS011;60419;48.880;18.036;2023-05-07T05:47:22;15.45;;;10.85;;
72427;SDS011;60419;48.880;18.036;2023-05-07T05:50:07;18.23;;;10.85;;
72427;SDS011;60419;48.880;18.036;2023-05-07T05:52:54;17.63;;;11.75;;
72427;SDS011;60419;48.880;18.036;2023-05-07T05:55:39;17.92;;;11.48;;
72427;SDS011;60419;48.880;18.036;2023-05-07T05:58:25;16.80;;;9.25;;
72427;SDS011;60419;48.880;18.036;2023-05-07T06:01:10;14.40;;;10.63;;
72427;SDS011;60419;48.880;18.036;2023-05-07T06:03:56;12.93;;;7.90;;
72427;SDS011;60419;48.880;18.036;2023-05-07T06:06:42;15.18;;;10.05;;
72427;SDS011;60419;48.880;18.036;2023-05-07T06:09:27;13.98;;;9.45;;
72427;SDS011;60419;48.880;18.036;2023-05-07T06:12:13;18.48;;;11.32;;
72427;SDS011;60419;48.880;18.036;2023-05-07T06:14:58;16.98;;;11.68;;
72427;SDS011;60419;48.880;18.036;2023-05-07T06:17:43;13.32;;;9.30;;
72427;SDS011;60419;48.880;18.036;2023-05-07T06:20:29;15.73;;;10.32;;
72427;SDS011;60419;48.880;18.036;2023-05-07T06:23:14;16.25;;;10.48;;
72427;SDS011;60419;48.880;18.036;2023-05-07T06:26:00;14.80;;;10.10;;
72427;SDS011;60419;48.880;18.036;2023-05-07T06:28:45;15.02;;;10.25;;
72427;SDS011;60419;48.880;18.036;2023-05-07T06:31:30;14.95;;;10.65;;
72427;SDS011;60419;48.880;18.036;2023-05-07T06:34:16;12.23;;;8.40;;
72427;SDS011;60419;48.880;18.036;2023-05-07T06:37:02;15.55;;;10.25;;
72427;SDS011;60419;48.880;18.036;2023-05-07T06:39:48;14.23;;;9.27;;
72427;SDS011;60419;48.880;18.036;2023-05-07T06:42:33;15.30;;;10.13;;
72427;SDS011;60419;48.880;18.036;2023-05-07T06:45:19;13.82;;;10.48;;
72427;SDS011;60419;48.880;18.036;2023-05-07T06:48:04;14.38;;;9.38;;
72427;SDS011;60419;48.880;18.036;2023-05-07T06:50:50;14.02;;;9.10;;
72427;SDS011;60419;48.880;18.036;2023-05-07T06:53:35;13.23;;;8.65;;
72427;SDS011;60419;48.880;18.036;2023-05-07T06:56:21;14.27;;;9.63;;
72427;SDS011;60419;48.880;18.036;2023-05-07T06:59:08;12.88;;;8.85;;
72427;SDS011;60419;48.880;18.036;2023-05-07T07:01:53;13.57;;;8.55;;
72427;SDS011;60419;48.880;18.036;2023-05-07T07:04:39;13.40;;;8.52;;
72427;SDS011;60419;48.880;18.036;2023-05-07T07:07:25;12.35;;;8.00;;
72427;SDS011;60419;48.880;18.036;2023-05-07T07:10:10;12.52;;;8.48;;
72427;SDS011;60419;48.880;18.036;2023-05-07T07:12:55;13.98;;;9.02;;
72427;SDS011;60419;48.880;18.036;2023-05-07T07:15:41;11.57;;;8.05;;
72427;SDS011;60419;48.880;18.036;2023-05-07T07:18:26;12.52;;;8.05;;
72427;SDS011;60419;48.880;18.036;2023-05-07T07:21:12;11.75;;;7.65;;
72427;SDS011;60419;48.880;18.036;2023-05-07T07:23:57;15.57;;;7.72;;
72427;SDS011;60419;48.880;18.036;2023-05-07T07:26:43;12.73;;;9.15;;
72427;SDS011;60419;48.880;18.036;2023-05-07T07:29:28;12.63;;;7.60;;
72427;SDS011;60419;48.880;18.036;2023-05-07T07:32:13;12.25;;;8.10;;
72427;SDS011;60419;48.880;18.036;2023-05-07T07:34:59;11.95;;;8.30;;
72427;SDS011;60419;48.880;18.036;2023-05-07T07:37:45;13.35;;;7.57;;
72427;SDS011;60419;48.880;18.036;2023-05-07T07:40:30;11.18;;;7.93;;
72427;SDS011;60419;48.880;18.036;2023-05-07T07:43:15;11.45;;;7.35;;
72427;SDS011;60419;48.880;18.036;2023-05-07T07:46:01;10.60;;;7.07;;
72427;SDS011;60419;48.880;18.036;2023-05-07T07:48:46;10.70;;;7.00;;
72427;SDS011;60419;48.880;18.036;2023-05-07T07:51:32;10.98;;;7.93;;
72427;SDS011;60419;48.880;18.036;2023-05-07T07:54:17;11.85;;;7.80;;
72427;SDS011;60419;48.880;18.036;2023-05-07T07:57:02;12.35;;;8.02;;
72427;SDS011;60419;48.880;18.036;2023-05-07T07:59:48;12.68;;;8.30;;
72427;SDS011;60419;48.880;18.036;2023-05-07T08:02:34;11.25;;;7.75;;
72427;SDS011;60419;48.880;18.036;2023-05-07T08:05:19;10.73;;;6.20;;
72427;SDS011;60419;48.880;18.036;2023-05-07T08:08:05;10.88;;;7.05;;
72427;SDS011;60419;48.880;18.036;2023-05-07T08:10:51;8.57;;;4.78;;
72427;SDS011;60419;48.880;18.036;2023-05-07T08:13:36;10.15;;;6.55;;
72427;SDS011;60419;48.880;18.036;2023-05-07T08:16:23;9.77;;;7.25;;
72427;SDS011;60419;48.880;18.036;2023-05-07T08:19:09;9.18;;;6.10;;
72427;SDS011;60419;48.880;18.036;2023-05-07T08:21:55;8.05;;;5.30;;
72427;SDS011;60419;48.880;18.036;2023-05-07T08:24:40;10.93;;;6.15;;
72427;SDS011;60419;48.880;18.036;2023-05-07T08:27:26;7.43;;;5.50;;
72427;SDS011;60419;48.880;18.036;2023-05-07T08:30:11;8.38;;;5.72;;
72427;SDS011;60419;48.880;18.036;2023-05-07T08:32:57;7.97;;;5.60;;
72427;SDS011;60419;48.880;18.036;2023-05-07T08:35:43;8.07;;;5.45;;
72427;SDS011;60419;48.880;18.036;2023-05-07T08:38:28;8.50;;;5.63;;
72427;SDS011;60419;48.880;18.036;2023-05-07T08:41:13;8.68;;;5.30;;
72427;SDS011;60419;48.880;18.036;2023-05-07T08:43:59;7.50;;;5.72;;
72427;SDS011;60419;48.880;18.036;2023-05-07T08:46:47;7.63;;;5.55;;
72427;SDS011;60419;48.880;18.036;2023-05-07T08:49:38;6.00;;;3.72;;
72427;SDS011;60419;48.880;18.036;2023-05-07T08:52:24;7.00;;;5.10;;
72427;SDS011;60419;48.880;18.036;2023-05-07T08:55:11;7.47;;;5.00;;
72427;SDS011;60419;48.880;18.036;2023-05-07T08:57:57;7.40;;;5.00;;
72427;SDS011;60419;48.880;18.036;2023-05-07T09:00:43;8.88;;;4.53;;
72427;SDS011;60419;48.880;18.036;2023-05-07T09:03:30;6.80;;;4.55;;
72427;SDS011;60419;48.880;18.036;2023-05-07T09:06:15;6.35;;;4.70;;
72427;SDS011;60419;48.880;18.036;2023-05-07T09:09:01;6.80;;;4.35;;
72427;SDS011;60419;48.880;18.036;2023-05-07T09:11:55;4.75;;;3.50;;
72427;SDS011;60419;48.880;18.036;2023-05-07T09:14:43;6.25;;;4.18;;
72427;SDS011;60419;48.880;18.036;2023-05-07T09:17:28;6.80;;;4.40;;
72427;SDS011;60419;48.880;18.036;2023-05-07T09:20:14;6.32;;;4.28;;
72427;SDS011;60419;48.880;18.036;2023-05-07T09:23:01;7.43;;;4.30;;
72427;SDS011;60419;48.880;18.036;2023-05-07T09:25:46;5.63;;;3.83;;
72427;SDS011;60419;48.880;18.036;2023-05-07T09:28:32;5.03;;;3.58;;
72427;SDS011;60419;48.880;18.036;2023-05-07T09:31:17;7.38;;;3.70;;
72427;SDS011;60419;48.880;18.036;2023-05-07T09:34:04;4.78;;;3.00;;
72427;SDS011;60419;48.880;18.036;2023-05-07T09:36:50;5.55;;;3.17;;
72427;SDS011;60419;48.880;18.036;2023-05-07T09:39:41;5.57;;;3.70;;
72427;SDS011;60419;48.880;18.036;2023-05-07T09:42:28;2.95;;;1.67;;
72427;SDS011;60419;48.880;18.036;2023-05-07T09:45:14;2.95;;;2.00;;
72427;SDS011;60419;48.880;18.036;2023-05-07T09:47:59;2.55;;;1.60;;
72427;SDS011;60419;48.880;18.036;2023-05-07T09:50:51;2.42;;;1.60;;
72427;SDS011;60419;48.880;18.036;2023-05-07T09:53:41;3.75;;;1.83;;
72427;SDS011;60419;48.880;18.036;2023-05-07T09:56:29;3.03;;;1.77;;
72427;SDS011;60419;48.880;18.036;2023-05-07T09:59:16;3.78;;;1.75;;
72427;SDS011;60419;48.880;18.036;2023-05-07T10:02:01;3.47;;;1.70;;
72427;SDS011;60419;48.880;18.036;2023-05-07T10:04:48;4.03;;;1.80;;
72427;SDS011;60419;48.880;18.036;2023-05-07T10:07:34;3.00;;;2.00;;
72427;SDS011;60419;48.880;18.036;2023-05-07T10:10:20;2.60;;;1.80;;
72427;SDS011;60419;48.880;18.036;2023-05-07T10:13:06;3.97;;;1.95;;
72427;SDS011;60419;48.880;18.036;2023-05-07T10:15:55;3.30;;;1.85;;
72427;SDS011;60419;48.880;18.036;2023-05-07T10:18:42;3.40;;;2.20;;
72427;SDS011;60419;48.880;18.036;2023-05-07T10:21:28;3.08;;;2.10;;
72427;SDS011;60419;48.880;18.036;2023-05-07T10:27:16;3.55;;;1.95;;
72427;SDS011;60419;48.880;18.036;2023-05-07T10:33:07;3.03;;;2.10;;
72427;SDS011;60419;48.880;18.036;2023-05-07T10:35:57;6.35;;;3.53;;
72427;SDS011;60419;48.880;18.036;2023-05-07T10:38:45;6.07;;;2.67;;
72427;SDS011;60419;48.880;18.036;2023-05-07T10:41:31;3.60;;;2.22;;
72427;SDS011;60419;48.880;18.036;2023-05-07T10:44:26;3.65;;;2.10;;
72427;SDS011;60419;48.880;18.036;2023-05-07T10:47:16;3.50;;;1.98;;
72427;SDS011;60419;48.880;18.036;2023-05-07T10:53:15;5.20;;;2.33;;
72427;SDS011;60419;48.880;18.036;2023-05-07T11:02:12;3.72;;;1.95;;
72427;SDS011;60419;48.880;18.036;2023-05-07T11:05:18;3.65;;;1.98;;
72427;SDS011;60419;48.880;18.036;2023-05-07T11:08:07;4.70;;;2.28;;
72427;SDS011;60419;48.880;18.036;2023-05-07T11:10:54;3.70;;;1.98;;
72427;SDS011;60419;48.880;18.036;2023-05-07T11:13:44;3.50;;;2.13;;
72427;SDS011;60419;48.880;18.036;2023-05-07T11:16:31;4.85;;;2.30;;
72427;SDS011;60419;48.880;18.036;2023-05-07T11:19:18;6.70;;;3.25;;
72427;SDS011;60419;48.880;18.036;2023-05-07T11:25:21;6.40;;;2.78;;
72427;SDS011;60419;48.880;18.036;2023-05-07T11:28:07;3.60;;;2.45;;
72427;SDS011;60419;48.880;18.036;2023-05-07T11:30:55;4.20;;;2.78;;
72427;SDS011;60419;48.880;18.036;2023-05-07T11:33:41;3.63;;;2.55;;
72427;SDS011;60419;48.880;18.036;2023-05-07T11:36:31;4.20;;;2.60;;
72427;SDS011;60419;48.880;18.036;2023-05-07T11:39:27;3.60;;;2.50;;
72427;SDS011;60419;48.880;18.036;2023-05-07T11:42:30;4.05;;;2.72;;
72427;SDS011;60419;48.880;18.036;2023-05-07T11:45:23;4.53;;;2.90;;
72427;SDS011;60419;48.880;18.036;2023-05-07T11:48:12;4.18;;;2.80;;
72427;SDS011;60419;48.880;18.036;2023-05-07T11:53:43;6.07;;;3.10;;
72427;SDS011;60419;48.880;18.036;2023-05-07T11:56:28;5.78;;;3.83;;
72427;SDS011;60419;48.880;18.036;2023-05-07T11:59:17;5.90;;;4.22;;
72427;SDS011;60419;48.880;18.036;2023-05-07T12:02:02;5.88;;;4.05;;
72427;SDS011;60419;48.880;18.036;2023-05-07T12:04:48;5.32;;;3.78;;
72427;SDS011;60419;48.880;18.036;2023-05-07T12:07:33;7.05;;;4.25;;
72427;SDS011;60419;48.880;18.036;2023-05-07T12:10:19;7.20;;;4.53;;
72427;SDS011;60419;48.880;18.036;2023-05-07T12:13:13;7.25;;;4.30;;
72427;SDS011;60419;48.880;18.036;2023-05-07T12:16:09;8.90;;;4.65;;
72427;SDS011;60419;48.880;18.036;2023-05-07T12:18:56;6.60;;;4.60;;
72427;SDS011;60419;48.880;18.036;2023-05-07T12:21:43;11.35;;;5.60;;
72427;SDS011;60419;48.880;18.036;2023-05-07T12:24:30;7.10;;;5.25;;
72427;SDS011;60419;48.880;18.036;2023-05-07T12:30:15;7.45;;;4.97;;
72427;SDS011;60419;48.880;18.036;2023-05-07T12:33:01;6.90;;;4.57;;
72427;SDS011;60419;48.880;18.036;2023-05-07T12:35:47;6.40;;;4.75;;
72427;SDS011;60419;48.880;18.036;2023-05-07T12:38:34;7.28;;;5.32;;
72427;SDS011;60419;48.880;18.036;2023-05-07T12:41:21;7.85;;;5.40;;
72427;SDS011;60419;48.880;18.036;2023-05-07T12:44:11;7.23;;;5.20;;
72427;SDS011;60419;48.880;18.036;2023-05-07T12:46:57;7.30;;;5.03;;
72427;SDS011;60419;48.880;18.036;2023-05-07T12:49:42;7.80;;;4.70;;
72427;SDS011;60419;48.880;18.036;2023-05-07T12:52:29;7.63;;;5.35;;
72427;SDS011;60419;48.880;18.036;2023-05-07T12:55:16;7.50;;;5.43;;
72427;SDS011;60419;48.880;18.036;2023-05-07T12:58:02;6.93;;;5.38;;
72427;SDS011;60419;48.880;18.036;2023-05-07T13:00:48;7.82;;;5.57;;
72427;SDS011;60419;48.880;18.036;2023-05-07T13:03:36;8.15;;;5.57;;
72427;SDS011;60419;48.880;18.036;2023-05-07T13:06:22;8.20;;;5.72;;
72427;SDS011;60419;48.880;18.036;2023-05-07T13:09:08;8.40;;;5.55;;
72427;SDS011;60419;48.880;18.036;2023-05-07T13:11:53;7.57;;;5.88;;
72427;SDS011;60419;48.880;18.036;2023-05-07T13:14:38;10.15;;;6.05;;
72427;SDS011;60419;48.880;18.036;2023-05-07T13:17:24;8.50;;;5.70;;
72427;SDS011;60419;48.880;18.036;2023-05-07T13:20:10;7.72;;;6.22;;
72427;SDS011;60419;48.880;18.036;2023-05-07T13:22:56;9.02;;;6.63;;
72427;SDS011;60419;48.880;18.036;2023-05-07T13:25:41;8.00;;;6.70;;
72427;SDS011;60419;48.880;18.036;2023-05-07T13:28:27;8.38;;;6.68;;
72427;SDS011;60419;48.880;18.036;2023-05-07T13:31:12;9.85;;;6.78;;
72427;SDS011;60419;48.880;18.036;2023-05-07T13:33:57;8.98;;;6.53;;
72427;SDS011;60419;48.880;18.036;2023-05-07T13:36:43;10.18;;;7.55;;
72427;SDS011;60419;48.880;18.036;2023-05-07T13:39:28;11.50;;;7.70;;
72427;SDS011;60419;48.880;18.036;2023-05-07T13:42:13;9.35;;;7.15;;
72427;SDS011;60419;48.880;18.036;2023-05-07T13:44:59;9.15;;;6.97;;
72427;SDS011;60419;48.880;18.036;2023-05-07T13:47:45;8.40;;;6.35;;
72427;SDS011;60419;48.880;18.036;2023-05-07T13:50:31;8.23;;;6.22;;
72427;SDS011;60419;48.880;18.036;2023-05-07T13:53:17;9.65;;;6.38;;
72427;SDS011;60419;48.880;18.036;2023-05-07T13:56:03;10.48;;;7.32;;
72427;SDS011;60419;48.880;18.036;2023-05-07T13:58:49;9.25;;;7.47;;
72427;SDS011;60419;48.880;18.036;2023-05-07T14:01:34;9.57;;;7.70;;
72427;SDS011;60419;48.880;18.036;2023-05-07T14:04:20;9.85;;;7.07;;
72427;SDS011;60419;48.880;18.036;2023-05-07T14:07:05;11.57;;;7.18;;
72427;SDS011;60419;48.880;18.036;2023-05-07T14:09:51;9.27;;;7.25;;
72427;SDS011;60419;48.880;18.036;2023-05-07T14:12:36;9.57;;;7.30;;
72427;SDS011;60419;48.880;18.036;2023-05-07T14:15:22;8.90;;;5.75;;
72427;SDS011;60419;48.880;18.036;2023-05-07T14:18:07;9.02;;;6.35;;
72427;SDS011;60419;48.880;18.036;2023-05-07T14:20:52;7.93;;;5.78;;
72427;SDS011;60419;48.880;18.036;2023-05-07T14:23:38;7.53;;;5.28;;
72427;SDS011;60419;48.880;18.036;2023-05-07T14:26:23;9.98;;;5.43;;
72427;SDS011;60419;48.880;18.036;2023-05-07T14:29:08;7.45;;;5.70;;
72427;SDS011;60419;48.880;18.036;2023-05-07T14:31:54;7.93;;;5.70;;
72427;SDS011;60419;48.880;18.036;2023-05-07T14:34:39;8.05;;;5.82;;
72427;SDS011;60419;48.880;18.036;2023-05-07T14:37:25;6.47;;;5.43;;
72427;SDS011;60419;48.880;18.036;2023-05-07T14:40:10;7.90;;;5.88;;
72427;SDS011;60419;48.880;18.036;2023-05-07T14:42:56;8.25;;;5.85;;
72427;SDS011;60419;48.880;18.036;2023-05-07T14:45:42;9.48;;;5.15;;
72427;SDS011;60419;48.880;18.036;2023-05-07T14:48:28;7.53;;;5.75;;
72427;SDS011;60419;48.880;18.036;2023-05-07T14:51:13;7.40;;;6.05;;
72427;SDS011;60419;48.880;18.036;2023-05-07T14:53:58;7.38;;;5.97;;
72427;SDS011;60419;48.880;18.036;2023-05-07T14:56:45;7.75;;;6.05;;
72427;SDS011;60419;48.880;18.036;2023-05-07T14:59:30;6.55;;;5.05;;
72427;SDS011;60419;48.880;18.036;2023-05-07T15:02:17;7.18;;;5.30;;
72427;SDS011;60419;48.880;18.036;2023-05-07T15:05:03;7.55;;;5.60;;
72427;SDS011;60419;48.880;18.036;2023-05-07T15:07:48;7.22;;;5.82;;
72427;SDS011;60419;48.880;18.036;2023-05-07T15:10:35;8.80;;;5.80;;
72427;SDS011;60419;48.880;18.036;2023-05-07T15:13:26;8.23;;;5.65;;
72427;SDS011;60419;48.880;18.036;2023-05-07T15:16:12;8.13;;;5.88;;
72427;SDS011;60419;48.880;18.036;2023-05-07T15:18:58;8.07;;;6.00;;
72427;SDS011;60419;48.880;18.036;2023-05-07T15:21:43;7.53;;;5.95;;
72427;SDS011;60419;48.880;18.036;2023-05-07T15:24:29;7.13;;;5.57;;
72427;SDS011;60419;48.880;18.036;2023-05-07T15:27:15;7.70;;;5.80;;
72427;SDS011;60419;48.880;18.036;2023-05-07T15:30:02;7.30;;;5.85;;
72427;SDS011;60419;48.880;18.036;2023-05-07T15:32:48;7.03;;;5.38;;
72427;SDS011;60419;48.880;18.036;2023-05-07T15:35:33;7.82;;;5.70;;
72427;SDS011;60419;48.880;18.036;2023-05-07T15:38:19;8.07;;;5.65;;
72427;SDS011;60419;48.880;18.036;2023-05-07T15:41:04;6.90;;;5.63;;
72427;SDS011;60419;48.880;18.036;2023-05-07T15:43:50;6.68;;;5.07;;
72427;SDS011;60419;48.880;18.036;2023-05-07T15:46:37;8.50;;;4.85;;
72427;SDS011;60419;48.880;18.036;2023-05-07T15:49:22;6.57;;;5.20;;
72427;SDS011;60419;48.880;18.036;2023-05-07T15:52:08;6.25;;;4.43;;
72427;SDS011;60419;48.880;18.036;2023-05-07T15:54:58;6.30;;;4.22;;
72427;SDS011;60419;48.880;18.036;2023-05-07T15:57:44;5.90;;;4.38;;
72427;SDS011;60419;48.880;18.036;2023-05-07T16:00:29;7.47;;;5.22;;
72427;SDS011;60419;48.880;18.036;2023-05-07T16:03:14;6.63;;;4.53;;
72427;SDS011;60419;48.880;18.036;2023-05-07T16:06:00;8.40;;;5.35;;
72427;SDS011;60419;48.880;18.036;2023-05-07T16:08:45;7.07;;;5.30;;
72427;SDS011;60419;48.880;18.036;2023-05-07T16:11:31;7.05;;;4.47;;
72427;SDS011;60419;48.880;18.036;2023-05-07T16:14:17;6.57;;;5.05;;
72427;SDS011;60419;48.880;18.036;2023-05-07T16:17:03;6.28;;;5.05;;
72427;SDS011;60419;48.880;18.036;2023-05-07T16:19:49;6.30;;;4.63;;
72427;SDS011;60419;48.880;18.036;2023-05-07T16:22:35;7.10;;;5.28;;
72427;SDS011;60419;48.880;18.036;2023-05-07T16:25:21;6.70;;;4.97;;
72427;SDS011;60419;48.880;18.036;2023-05-07T16:28:06;7.20;;;5.38;;
72427;SDS011;60419;48.880;18.036;2023-05-07T16:30:52;7.05;;;4.72;;
72427;SDS011;60419;48.880;18.036;2023-05-07T16:33:38;6.82;;;4.97;;
72427;SDS011;60419;48.880;18.036;2023-05-07T16:36:26;7.65;;;5.72;;
72427;SDS011;60419;48.880;18.036;2023-05-07T16:39:11;5.97;;;4.28;;